sensor_id;sensor_type;location;lat;lon;timestamp;temperature;humidity
67722;SHT31;58309;45.292;11.820;2022-07-01T00:01:38;22.85;89.63
67722;SHT31;58309;45.292;11.820;2022-07-01T00:04:06;22.86;89.76
67722;SHT31;58309;45.292;11.820;2022-07-01T00:06:32;22.86;89.95
67722;SHT31;58309;45.292;11.820;2022-07-01T00:08:58;22.85;90.09
67722;SHT31;58309;45.292;11.820;2022-07-01T00:11:24;22.83;90.08
67722;SHT31;58309;45.292;11.820;2022-07-01T00:13:50;22.86;90.11
67722;SHT31;58309;45.292;11.820;2022-07-01T00:16:16;22.83;90.10
67722;SHT31;58309;45.292;11.820;2022-07-01T00:18:41;22.83;90.05
67722;SHT31;58309;45.292;11.820;2022-07-01T00:21:07;22.82;90.11
67722;SHT31;58309;45.292;11.820;2022-07-01T00:23:33;22.77;90.26
67722;SHT31;58309;45.292;11.820;2022-07-01T00:25:59;22.75;90.29
67722;SHT31;58309;45.292;11.820;2022-07-01T00:28:25;22.76;90.31
67722;SHT31;58309;45.292;11.820;2022-07-01T00:30:51;22.79;90.21
67722;SHT31;58309;45.292;11.820;2022-07-01T00:33:17;22.76;90.17
67722;SHT31;58309;45.292;11.820;2022-07-01T00:35:43;22.71;90.26
67722;SHT31;58309;45.292;11.820;2022-07-01T00:38:09;22.66;90.18
67722;SHT31;58309;45.292;11.820;2022-07-01T00:40:35;22.65;90.26
67722;SHT31;58309;45.292;11.820;2022-07-01T00:43:01;22.64;90.10
67722;SHT31;58309;45.292;11.820;2022-07-01T00:45:27;22.59;90.14
67722;SHT31;58309;45.292;11.820;2022-07-01T00:47:53;22.54;90.09
67722;SHT31;58309;45.292;11.820;2022-07-01T00:50:19;22.52;90.19
67722;SHT31;58309;45.292;11.820;2022-07-01T00:52:45;22.54;89.89
67722;SHT31;58309;45.292;11.820;2022-07-01T00:55:12;22.47;89.96
67722;SHT31;58309;45.292;11.820;2022-07-01T00:57:39;22.45;90.07
67722;SHT31;58309;45.292;11.820;2022-07-01T01:00:08;22.44;90.06
67722;SHT31;58309;45.292;11.820;2022-07-01T01:02:35;22.41;90.07
67722;SHT31;58309;45.292;11.820;2022-07-01T01:05:04;22.38;90.11
67722;SHT31;58309;45.292;11.820;2022-07-01T01:07:31;22.33;90.31
67722;SHT31;58309;45.292;11.820;2022-07-01T01:09:59;22.31;90.39
67722;SHT31;58309;45.292;11.820;2022-07-01T01:12:26;22.34;90.50
67722;SHT31;58309;45.292;11.820;2022-07-01T01:14:52;22.33;90.55
67722;SHT31;58309;45.292;11.820;2022-07-01T01:17:19;22.34;90.55
67722;SHT31;58309;45.292;11.820;2022-07-01T01:19:47;22.33;90.57
67722;SHT31;58309;45.292;11.820;2022-07-01T01:22:14;22.31;90.63
67722;SHT31;58309;45.292;11.820;2022-07-01T01:24:41;22.28;90.65
67722;SHT31;58309;45.292;11.820;2022-07-01T01:27:07;22.27;90.76
67722;SHT31;58309;45.292;11.820;2022-07-01T01:29:35;22.27;90.90
67722;SHT31;58309;45.292;11.820;2022-07-01T01:32:02;22.24;90.91
67722;SHT31;58309;45.292;11.820;2022-07-01T01:34:28;22.21;90.99
67722;SHT31;58309;45.292;11.820;2022-07-01T01:36:54;22.21;91.00
67722;SHT31;58309;45.292;11.820;2022-07-01T01:39:20;22.21;90.96
67722;SHT31;58309;45.292;11.820;2022-07-01T01:41:46;22.18;91.20
67722;SHT31;58309;45.292;11.820;2022-07-01T01:44:13;22.22;90.97
67722;SHT31;58309;45.292;11.820;2022-07-01T01:46:38;22.20;91.01
67722;SHT31;58309;45.292;11.820;2022-07-01T01:49:05;22.18;90.93
67722;SHT31;58309;45.292;11.820;2022-07-01T01:51:32;22.18;90.83
67722;SHT31;58309;45.292;11.820;2022-07-01T01:53:58;22.15;90.90
67722;SHT31;58309;45.292;11.820;2022-07-01T01:56:25;22.13;90.84
67722;SHT31;58309;45.292;11.820;2022-07-01T01:58:51;22.11;90.99
67722;SHT31;58309;45.292;11.820;2022-07-01T02:01:19;22.07;90.99
67722;SHT31;58309;45.292;11.820;2022-07-01T02:03:46;22.04;90.98
67722;SHT31;58309;45.292;11.820;2022-07-01T02:06:14;22.04;90.97
67722;SHT31;58309;45.292;11.820;2022-07-01T02:08:41;22.01;91.05
67722;SHT31;58309;45.292;11.820;2022-07-01T02:11:07;22.03;91.16
67722;SHT31;58309;45.292;11.820;2022-07-01T02:13:33;21.98;91.39
67722;SHT31;58309;45.292;11.820;2022-07-01T02:16:00;22.00;91.42
67722;SHT31;58309;45.292;11.820;2022-07-01T02:18:25;22.00;91.39
67722;SHT31;58309;45.292;11.820;2022-07-01T02:20:51;22.00;91.27
67722;SHT31;58309;45.292;11.820;2022-07-01T02:23:18;22.01;91.41
67722;SHT31;58309;45.292;11.820;2022-07-01T02:25:43;22.05;90.98
67722;SHT31;58309;45.292;11.820;2022-07-01T02:28:09;22.03;90.96
67722;SHT31;58309;45.292;11.820;2022-07-01T02:30:35;22.04;90.96
67722;SHT31;58309;45.292;11.820;2022-07-01T02:33:05;22.03;90.81
67722;SHT31;58309;45.292;11.820;2022-07-01T02:35:31;22.00;90.74
67722;SHT31;58309;45.292;11.820;2022-07-01T02:37:57;22.00;90.96
67722;SHT31;58309;45.292;11.820;2022-07-01T02:40:23;22.01;90.94
67722;SHT31;58309;45.292;11.820;2022-07-01T02:42:49;22.04;91.01
67722;SHT31;58309;45.292;11.820;2022-07-01T02:45:14;22.03;91.06
67722;SHT31;58309;45.292;11.820;2022-07-01T02:47:40;22.04;90.68
67722;SHT31;58309;45.292;11.820;2022-07-01T02:50:09;21.98;90.71
67722;SHT31;58309;45.292;11.820;2022-07-01T02:52:36;22.01;90.78
67722;SHT31;58309;45.292;11.820;2022-07-01T02:55:04;21.98;90.78
67722;SHT31;58309;45.292;11.820;2022-07-01T02:57:30;21.92;90.91
67722;SHT31;58309;45.292;11.820;2022-07-01T02:59:56;21.93;90.82
67722;SHT31;58309;45.292;11.820;2022-07-01T03:02:22;21.92;90.89
67722;SHT31;58309;45.292;11.820;2022-07-01T03:04:49;21.92;91.16
67722;SHT31;58309;45.292;11.820;2022-07-01T03:07:15;21.86;91.28
67722;SHT31;58309;45.292;11.820;2022-07-01T03:09:41;21.87;91.77
67722;SHT31;58309;45.292;11.820;2022-07-01T03:12:09;21.84;91.65
67722;SHT31;58309;45.292;11.820;2022-07-01T03:14:58;21.86;91.75
67722;SHT31;58309;45.292;11.820;2022-07-01T03:17:25;21.84;91.74
67722;SHT31;58309;45.292;11.820;2022-07-01T03:19:52;21.84;91.72
67722;SHT31;58309;45.292;11.820;2022-07-01T03:22:19;21.86;92.05
67722;SHT31;58309;45.292;11.820;2022-07-01T03:24:46;21.79;91.98
67722;SHT31;58309;45.292;11.820;2022-07-01T03:27:13;21.82;92.04
67722;SHT31;58309;45.292;11.820;2022-07-01T03:29:38;21.80;92.15
67722;SHT31;58309;45.292;11.820;2022-07-01T03:32:04;21.74;92.21
67722;SHT31;58309;45.292;11.820;2022-07-01T03:34:30;21.74;92.39
67722;SHT31;58309;45.292;11.820;2022-07-01T03:36:56;21.73;92.57
67722;SHT31;58309;45.292;11.820;2022-07-01T03:39:22;21.70;92.79
67722;SHT31;58309;45.292;11.820;2022-07-01T03:41:48;21.72;93.03
67722;SHT31;58309;45.292;11.820;2022-07-01T03:44:14;21.72;93.06
67722;SHT31;58309;45.292;11.820;2022-07-01T03:46:39;21.73;93.20
67722;SHT31;58309;45.292;11.820;2022-07-01T03:49:05;21.73;93.42
67722;SHT31;58309;45.292;11.820;2022-07-01T03:51:31;21.76;93.53
67722;SHT31;58309;45.292;11.820;2022-07-01T03:53:56;21.80;93.74
67722;SHT31;58309;45.292;11.820;2022-07-01T03:56:41;21.82;93.81
67722;SHT31;58309;45.292;11.820;2022-07-01T03:59:09;21.87;93.91
67722;SHT31;58309;45.292;11.820;2022-07-01T04:01:35;21.93;93.95
67722;SHT31;58309;45.292;11.820;2022-07-01T04:04:01;21.94;94.00
67722;SHT31;58309;45.292;11.820;2022-07-01T04:06:26;22.00;94.06
67722;SHT31;58309;45.292;11.820;2022-07-01T04:08:53;22.07;93.84
67722;SHT31;58309;45.292;11.820;2022-07-01T04:11:19;22.08;93.64
67722;SHT31;58309;45.292;11.820;2022-07-01T04:13:44;22.11;93.68
67722;SHT31;58309;45.292;11.820;2022-07-01T04:16:19;22.17;93.82
67722;SHT31;58309;45.292;11.820;2022-07-01T04:18:46;22.18;93.70
67722;SHT31;58309;45.292;11.820;2022-07-01T04:21:12;22.20;93.80
67722;SHT31;58309;45.292;11.820;2022-07-01T04:23:56;22.25;94.06
67722;SHT31;58309;45.292;11.820;2022-07-01T04:26:25;22.35;94.12
67722;SHT31;58309;45.292;11.820;2022-07-01T04:28:51;22.42;94.07
67722;SHT31;58309;45.292;11.820;2022-07-01T04:31:18;22.49;93.98
67722;SHT31;58309;45.292;11.820;2022-07-01T04:33:44;22.62;94.08
67722;SHT31;58309;45.292;11.820;2022-07-01T04:36:10;22.73;93.97
67722;SHT31;58309;45.292;11.820;2022-07-01T04:38:36;22.83;93.99
67722;SHT31;58309;45.292;11.820;2022-07-01T04:41:02;22.95;93.94
67722;SHT31;58309;45.292;11.820;2022-07-01T04:43:46;23.14;93.58
67722;SHT31;58309;45.292;11.820;2022-07-01T04:46:11;23.23;93.20
67722;SHT31;58309;45.292;11.820;2022-07-01T04:48:37;23.34;93.03
67722;SHT31;58309;45.292;11.820;2022-07-01T04:51:28;23.46;92.65
67722;SHT31;58309;45.292;11.820;2022-07-01T04:53:54;23.55;92.58
67722;SHT31;58309;45.292;11.820;2022-07-01T04:56:20;23.71;92.27
67722;SHT31;58309;45.292;11.820;2022-07-01T04:58:46;23.82;91.69
67722;SHT31;58309;45.292;11.820;2022-07-01T05:01:12;23.88;91.60
67722;SHT31;58309;45.292;11.820;2022-07-01T05:03:38;23.97;91.44
67722;SHT31;58309;45.292;11.820;2022-07-01T05:06:04;24.01;91.55
67722;SHT31;58309;45.292;11.820;2022-07-01T05:08:30;24.08;91.54
67722;SHT31;58309;45.292;11.820;2022-07-01T05:10:56;24.15;91.44
67722;SHT31;58309;45.292;11.820;2022-07-01T05:13:21;24.25;91.25
67722;SHT31;58309;45.292;11.820;2022-07-01T05:15:47;24.26;90.94
67722;SHT31;58309;45.292;11.820;2022-07-01T05:18:13;24.30;90.79
67722;SHT31;58309;45.292;11.820;2022-07-01T05:20:57;24.42;90.70
67722;SHT31;58309;45.292;11.820;2022-07-01T05:23:41;24.51;90.42
67722;SHT31;58309;45.292;11.820;2022-07-01T05:26:06;24.57;90.38
67722;SHT31;58309;45.292;11.820;2022-07-01T05:28:32;24.64;90.02
67722;SHT31;58309;45.292;11.820;2022-07-01T05:30:58;24.73;89.40
67722;SHT31;58309;45.292;11.820;2022-07-01T05:33:24;24.79;89.69
67722;SHT31;58309;45.292;11.820;2022-07-01T05:35:52;24.87;89.33
67722;SHT31;58309;45.292;11.820;2022-07-01T05:38:18;24.95;89.47
67722;SHT31;58309;45.292;11.820;2022-07-01T05:40:44;25.01;89.13
67722;SHT31;58309;45.292;11.820;2022-07-01T05:43:09;25.08;88.94
67722;SHT31;58309;45.292;11.820;2022-07-01T05:45:35;25.20;89.08
67722;SHT31;58309;45.292;11.820;2022-07-01T05:48:01;25.34;88.72
67722;SHT31;58309;45.292;11.820;2022-07-01T05:50:27;25.42;88.08
67722;SHT31;58309;45.292;11.820;2022-07-01T05:52:52;25.45;87.84
67722;SHT31;58309;45.292;11.820;2022-07-01T05:55:18;25.55;87.92
67722;SHT31;58309;45.292;11.820;2022-07-01T05:57:44;25.59;87.74
67722;SHT31;58309;45.292;11.820;2022-07-01T06:00:10;25.66;87.57
67722;SHT31;58309;45.292;11.820;2022-07-01T06:02:36;25.76;87.90
67722;SHT31;58309;45.292;11.820;2022-07-01T06:05:02;25.93;87.24
67722;SHT31;58309;45.292;11.820;2022-07-01T06:07:28;26.02;87.00
67722;SHT31;58309;45.292;11.820;2022-07-01T06:09:57;26.19;86.55
67722;SHT31;58309;45.292;11.820;2022-07-01T06:12:23;26.36;86.26
67722;SHT31;58309;45.292;11.820;2022-07-01T06:14:49;26.50;86.05
67722;SHT31;58309;45.292;11.820;2022-07-01T06:17:15;26.68;85.66
67722;SHT31;58309;45.292;11.820;2022-07-01T06:19:41;26.80;85.09
67722;SHT31;58309;45.292;11.820;2022-07-01T06:22:07;26.90;84.86
67722;SHT31;58309;45.292;11.820;2022-07-01T06:24:32;27.05;84.53
67722;SHT31;58309;45.292;11.820;2022-07-01T06:26:58;27.16;84.23
67722;SHT31;58309;45.292;11.820;2022-07-01T06:29:25;27.26;83.91
67722;SHT31;58309;45.292;11.820;2022-07-01T06:31:53;27.36;83.65
67722;SHT31;58309;45.292;11.820;2022-07-01T06:34:18;27.49;83.02
67722;SHT31;58309;45.292;11.820;2022-07-01T06:36:44;27.60;82.07
67722;SHT31;58309;45.292;11.820;2022-07-01T06:39:10;27.83;82.04
67722;SHT31;58309;45.292;11.820;2022-07-01T06:41:35;27.98;80.98
67722;SHT31;58309;45.292;11.820;2022-07-01T06:44:03;28.28;79.64
67722;SHT31;58309;45.292;11.820;2022-07-01T06:46:31;28.37;77.96
67722;SHT31;58309;45.292;11.820;2022-07-01T06:48:57;28.58;76.43
67722;SHT31;58309;45.292;11.820;2022-07-01T06:51:24;28.86;75.65
67722;SHT31;58309;45.292;11.820;2022-07-01T06:53:50;28.89;74.10
67722;SHT31;58309;45.292;11.820;2022-07-01T06:56:16;29.03;74.84
67722;SHT31;58309;45.292;11.820;2022-07-01T06:58:42;29.20;74.08
67722;SHT31;58309;45.292;11.820;2022-07-01T07:01:09;29.23;70.74
67722;SHT31;58309;45.292;11.820;2022-07-01T07:03:35;29.30;70.97
67722;SHT31;58309;45.292;11.820;2022-07-01T07:06:01;29.31;70.59
67722;SHT31;58309;45.292;11.820;2022-07-01T07:08:31;29.38;71.03
67722;SHT31;58309;45.292;11.820;2022-07-01T07:10:58;29.31;70.85
67722;SHT31;58309;45.292;11.820;2022-07-01T07:13:24;29.31;71.37
67722;SHT31;58309;45.292;11.820;2022-07-01T07:15:50;29.38;71.27
67722;SHT31;58309;45.292;11.820;2022-07-01T07:18:16;29.40;71.10
67722;SHT31;58309;45.292;11.820;2022-07-01T07:20:42;29.46;70.82
67722;SHT31;58309;45.292;11.820;2022-07-01T07:23:08;29.65;70.14
67722;SHT31;58309;45.292;11.820;2022-07-01T07:25:34;29.91;70.64
67722;SHT31;58309;45.292;11.820;2022-07-01T07:27:59;30.13;68.84
67722;SHT31;58309;45.292;11.820;2022-07-01T07:30:25;30.43;67.38
67722;SHT31;58309;45.292;11.820;2022-07-01T07:32:53;30.44;66.52
67722;SHT31;58309;45.292;11.820;2022-07-01T07:35:28;30.72;66.12
67722;SHT31;58309;45.292;11.820;2022-07-01T07:37:57;31.03;64.73
67722;SHT31;58309;45.292;11.820;2022-07-01T07:40:26;31.08;65.51
67722;SHT31;58309;45.292;11.820;2022-07-01T07:42:54;30.95;65.99
67722;SHT31;58309;45.292;11.820;2022-07-01T07:45:20;30.52;66.55
67722;SHT31;58309;45.292;11.820;2022-07-01T07:47:48;30.55;65.93
67722;SHT31;58309;45.292;11.820;2022-07-01T07:50:14;30.42;66.30
67722;SHT31;58309;45.292;11.820;2022-07-01T07:52:41;30.23;66.86
67722;SHT31;58309;45.292;11.820;2022-07-01T07:55:08;30.19;66.59
67722;SHT31;58309;45.292;11.820;2022-07-01T07:57:38;30.01;65.93
67722;SHT31;58309;45.292;11.820;2022-07-01T08:00:06;29.89;67.45
67722;SHT31;58309;45.292;11.820;2022-07-01T08:02:32;29.71;67.84
67722;SHT31;58309;45.292;11.820;2022-07-01T08:04:58;29.55;69.13
67722;SHT31;58309;45.292;11.820;2022-07-01T08:07:23;29.61;67.99
67722;SHT31;58309;45.292;11.820;2022-07-01T08:09:49;29.41;68.81
67722;SHT31;58309;45.292;11.820;2022-07-01T08:12:16;29.71;69.00
67722;SHT31;58309;45.292;11.820;2022-07-01T08:14:42;30.33;67.12
67722;SHT31;58309;45.292;11.820;2022-07-01T08:17:08;31.31;64.43
67722;SHT31;58309;45.292;11.820;2022-07-01T08:19:33;32.30;61.87
67722;SHT31;58309;45.292;11.820;2022-07-01T08:21:59;33.42;58.42
67722;SHT31;58309;45.292;11.820;2022-07-01T08:24:25;34.34;56.55
67722;SHT31;58309;45.292;11.820;2022-07-01T08:26:50;34.75;53.91
67722;SHT31;58309;45.292;11.820;2022-07-01T08:29:16;34.82;52.55
67722;SHT31;58309;45.292;11.820;2022-07-01T08:31:42;34.41;54.79
67722;SHT31;58309;45.292;11.820;2022-07-01T08:34:08;34.23;54.60
67722;SHT31;58309;45.292;11.820;2022-07-01T08:36:35;34.36;52.70
67722;SHT31;58309;45.292;11.820;2022-07-01T08:39:01;34.33;53.64
67722;SHT31;58309;45.292;11.820;2022-07-01T08:41:27;34.04;54.56
67722;SHT31;58309;45.292;11.820;2022-07-01T08:43:53;33.58;55.43
67722;SHT31;58309;45.292;11.820;2022-07-01T08:46:18;33.65;55.34
67722;SHT31;58309;45.292;11.820;2022-07-01T08:48:45;34.40;55.25
67722;SHT31;58309;45.292;11.820;2022-07-01T08:51:11;34.61;53.45
67722;SHT31;58309;45.292;11.820;2022-07-01T08:53:37;35.39;53.28
67722;SHT31;58309;45.292;11.820;2022-07-01T08:56:04;35.88;51.89
67722;SHT31;58309;45.292;11.820;2022-07-01T08:58:49;36.09;49.58
67722;SHT31;58309;45.292;11.820;2022-07-01T09:01:20;35.96;49.97
67722;SHT31;58309;45.292;11.820;2022-07-01T09:03:46;36.00;50.53
67722;SHT31;58309;45.292;11.820;2022-07-01T09:06:17;35.28;51.86
67722;SHT31;58309;45.292;11.820;2022-07-01T09:08:44;36.27;48.97
67722;SHT31;58309;45.292;11.820;2022-07-01T09:11:15;36.59;48.96
67722;SHT31;58309;45.292;11.820;2022-07-01T09:13:42;37.20;47.29
67722;SHT31;58309;45.292;11.820;2022-07-01T09:16:15;37.07;47.59
67722;SHT31;58309;45.292;11.820;2022-07-01T09:18:59;36.75;48.80
67722;SHT31;58309;45.292;11.820;2022-07-01T09:21:28;36.96;47.71
67722;SHT31;58309;45.292;11.820;2022-07-01T09:23:56;36.66;48.23
67722;SHT31;58309;45.292;11.820;2022-07-01T09:26:21;37.30;47.54
67722;SHT31;58309;45.292;11.820;2022-07-01T09:28:54;37.02;46.92
67722;SHT31;58309;45.292;11.820;2022-07-01T09:31:32;36.78;47.99
67722;SHT31;58309;45.292;11.820;2022-07-01T09:34:06;37.15;47.95
67722;SHT31;58309;45.292;11.820;2022-07-01T09:36:38;36.89;47.28
67722;SHT31;58309;45.292;11.820;2022-07-01T09:39:07;36.11;49.63
67722;SHT31;58309;45.292;11.820;2022-07-01T09:41:37;34.81;52.76
67722;SHT31;58309;45.292;11.820;2022-07-01T09:44:04;34.52;53.91
67722;SHT31;58309;45.292;11.820;2022-07-01T09:46:30;35.98;50.46
67722;SHT31;58309;45.292;11.820;2022-07-01T09:48:56;37.22;46.73
67722;SHT31;58309;45.292;11.820;2022-07-01T09:51:22;36.90;48.82
67722;SHT31;58309;45.292;11.820;2022-07-01T09:53:47;37.12;47.09
67722;SHT31;58309;45.292;11.820;2022-07-01T09:56:19;36.39;47.39
67722;SHT31;58309;45.292;11.820;2022-07-01T09:58:45;35.97;48.75
67722;SHT31;58309;45.292;11.820;2022-07-01T10:01:13;34.94;50.79
67722;SHT31;58309;45.292;11.820;2022-07-01T10:03:41;33.97;53.09
67722;SHT31;58309;45.292;11.820;2022-07-01T10:06:11;33.17;55.65
67722;SHT31;58309;45.292;11.820;2022-07-01T10:08:58;33.70;53.66
67722;SHT31;58309;45.292;11.820;2022-07-01T10:14:17;34.10;53.63
67722;SHT31;58309;45.292;11.820;2022-07-01T10:16:47;34.58;51.99
67722;SHT31;58309;45.292;11.820;2022-07-01T10:21:46;34.40;52.74
67722;SHT31;58309;45.292;11.820;2022-07-01T10:24:13;34.38;52.03
67722;SHT31;58309;45.292;11.820;2022-07-01T10:26:41;34.50;52.57
67722;SHT31;58309;45.292;11.820;2022-07-01T10:29:35;36.28;48.74
67722;SHT31;58309;45.292;11.820;2022-07-01T10:32:07;37.75;45.94
67722;SHT31;58309;45.292;11.820;2022-07-01T10:34:39;38.36;44.04
67722;SHT31;58309;45.292;11.820;2022-07-01T10:37:10;39.28;41.42
67722;SHT31;58309;45.292;11.820;2022-07-01T10:40:02;38.63;42.85
67722;SHT31;58309;45.292;11.820;2022-07-01T10:42:32;38.24;43.82
67722;SHT31;58309;45.292;11.820;2022-07-01T10:45:04;38.22;43.55
67722;SHT31;58309;45.292;11.820;2022-07-01T10:47:30;36.38;46.96
67722;SHT31;58309;45.292;11.820;2022-07-01T10:50:12;35.80;47.77
67722;SHT31;58309;45.292;11.820;2022-07-01T10:52:59;34.89;50.66
67722;SHT31;58309;45.292;11.820;2022-07-01T10:55:53;35.61;48.35
67722;SHT31;58309;45.292;11.820;2022-07-01T10:58:38;36.28;46.41
67722;SHT31;58309;45.292;11.820;2022-07-01T11:01:04;36.80;45.48
67722;SHT31;58309;45.292;11.820;2022-07-01T11:03:36;37.48;43.78
67722;SHT31;58309;45.292;11.820;2022-07-01T11:06:02;37.00;45.52
67722;SHT31;58309;45.292;11.820;2022-07-01T11:08:28;36.38;46.39
67722;SHT31;58309;45.292;11.820;2022-07-01T11:10:55;36.20;47.45
67722;SHT31;58309;45.292;11.820;2022-07-01T11:13:30;35.73;47.34
67722;SHT31;58309;45.292;11.820;2022-07-01T11:15:56;35.28;48.68
67722;SHT31;58309;45.292;11.820;2022-07-01T11:18:22;35.35;50.15
67722;SHT31;58309;45.292;11.820;2022-07-01T11:20:48;35.93;48.34
67722;SHT31;58309;45.292;11.820;2022-07-01T11:23:14;37.41;45.33
67722;SHT31;58309;45.292;11.820;2022-07-01T11:25:41;38.35;41.79
67722;SHT31;58309;45.292;11.820;2022-07-01T11:28:07;39.10;41.93
67722;SHT31;58309;45.292;11.820;2022-07-01T11:30:35;38.76;42.04
67722;SHT31;58309;45.292;11.820;2022-07-01T11:33:01;38.69;41.64
67722;SHT31;58309;45.292;11.820;2022-07-01T11:35:31;37.30;43.85
67722;SHT31;58309;45.292;11.820;2022-07-01T11:38:18;36.69;44.50
67722;SHT31;58309;45.292;11.820;2022-07-01T11:41:04;38.15;42.78
67722;SHT31;58309;45.292;11.820;2022-07-01T11:43:33;38.31;42.73
67722;SHT31;58309;45.292;11.820;2022-07-01T11:46:01;38.93;39.74
67722;SHT31;58309;45.292;11.820;2022-07-01T11:50:58;39.25;40.03
67722;SHT31;58309;45.292;11.820;2022-07-01T11:53:24;38.87;39.19
67722;SHT31;58309;45.292;11.820;2022-07-01T11:55:50;39.57;38.26
67722;SHT31;58309;45.292;11.820;2022-07-01T11:58:16;41.01;36.02
67722;SHT31;58309;45.292;11.820;2022-07-01T12:00:42;41.24;35.54
67722;SHT31;58309;45.292;11.820;2022-07-01T12:03:11;40.05;36.70
67722;SHT31;58309;45.292;11.820;2022-07-01T12:05:38;40.09;37.58
67722;SHT31;58309;45.292;11.820;2022-07-01T12:08:04;41.07;36.86
67722;SHT31;58309;45.292;11.820;2022-07-01T12:10:30;39.89;38.34
67722;SHT31;58309;45.292;11.820;2022-07-01T12:13:00;40.36;36.36
67722;SHT31;58309;45.292;11.820;2022-07-01T12:15:28;39.62;38.59
67722;SHT31;58309;45.292;11.820;2022-07-01T12:18:07;40.53;38.08
67722;SHT31;58309;45.292;11.820;2022-07-01T12:20:33;41.15;37.05
67722;SHT31;58309;45.292;11.820;2022-07-01T12:23:12;40.67;36.55
67722;SHT31;58309;45.292;11.820;2022-07-01T12:25:38;40.36;37.34
67722;SHT31;58309;45.292;11.820;2022-07-01T12:28:04;40.19;36.29
67722;SHT31;58309;45.292;11.820;2022-07-01T12:30:30;39.40;37.75
67722;SHT31;58309;45.292;11.820;2022-07-01T12:33:08;39.27;37.22
67722;SHT31;58309;45.292;11.820;2022-07-01T12:35:40;39.57;38.62
67722;SHT31;58309;45.292;11.820;2022-07-01T12:38:15;39.25;37.40
67722;SHT31;58309;45.292;11.820;2022-07-01T12:40:47;39.50;38.66
67722;SHT31;58309;45.292;11.820;2022-07-01T12:43:27;39.50;38.85
67722;SHT31;58309;45.292;11.820;2022-07-01T12:46:26;40.08;37.49
67722;SHT31;58309;45.292;11.820;2022-07-01T12:48:52;40.33;36.54
67722;SHT31;58309;45.292;11.820;2022-07-01T12:51:18;39.86;36.29
67722;SHT31;58309;45.292;11.820;2022-07-01T12:53:57;38.33;39.52
67722;SHT31;58309;45.292;11.820;2022-07-01T12:56:28;37.38;41.72
67722;SHT31;58309;45.292;11.820;2022-07-01T12:58:55;37.34;42.00
67722;SHT31;58309;45.292;11.820;2022-07-01T13:01:31;37.51;40.85
67722;SHT31;58309;45.292;11.820;2022-07-01T13:04:00;37.16;41.53
67722;SHT31;58309;45.292;11.820;2022-07-01T13:06:26;37.16;43.62
67722;SHT31;58309;45.292;11.820;2022-07-01T13:08:51;36.23;44.46
67722;SHT31;58309;45.292;11.820;2022-07-01T13:11:22;36.29;43.78
67722;SHT31;58309;45.292;11.820;2022-07-01T13:13:51;36.97;41.61
67722;SHT31;58309;45.292;11.820;2022-07-01T13:16:20;37.46;41.16
67722;SHT31;58309;45.292;11.820;2022-07-01T13:18:45;36.90;41.02
67722;SHT31;58309;45.292;11.820;2022-07-01T13:21:11;36.56;43.67
67722;SHT31;58309;45.292;11.820;2022-07-01T13:23:37;36.32;42.80
67722;SHT31;58309;45.292;11.820;2022-07-01T13:26:02;35.70;42.96
67722;SHT31;58309;45.292;11.820;2022-07-01T13:28:28;35.80;44.48
67722;SHT31;58309;45.292;11.820;2022-07-01T13:30:54;35.64;45.32
67722;SHT31;58309;45.292;11.820;2022-07-01T13:33:20;35.33;46.03
67722;SHT31;58309;45.292;11.820;2022-07-01T13:35:46;35.20;45.53
67722;SHT31;58309;45.292;11.820;2022-07-01T13:38:12;35.15;46.22
67722;SHT31;58309;45.292;11.820;2022-07-01T13:40:38;35.10;45.06
67722;SHT31;58309;45.292;11.820;2022-07-01T13:43:04;34.98;44.74
67722;SHT31;58309;45.292;11.820;2022-07-01T13:45:30;34.79;45.93
67722;SHT31;58309;45.292;11.820;2022-07-01T13:47:56;34.51;46.22
67722;SHT31;58309;45.292;11.820;2022-07-01T13:50:21;33.99;48.45
67722;SHT31;58309;45.292;11.820;2022-07-01T13:52:48;33.59;49.64
67722;SHT31;58309;45.292;11.820;2022-07-01T13:55:15;33.26;50.28
67722;SHT31;58309;45.292;11.820;2022-07-01T14:00:16;32.91;52.19
67722;SHT31;58309;45.292;11.820;2022-07-01T14:02:42;32.71;52.66
67722;SHT31;58309;45.292;11.820;2022-07-01T14:05:09;32.37;53.61
67722;SHT31;58309;45.292;11.820;2022-07-01T14:07:35;32.22;53.62
67722;SHT31;58309;45.292;11.820;2022-07-01T14:10:01;32.19;54.06
67722;SHT31;58309;45.292;11.820;2022-07-01T14:12:27;32.24;53.43
67722;SHT31;58309;45.292;11.820;2022-07-01T14:14:56;32.23;54.35
67722;SHT31;58309;45.292;11.820;2022-07-01T14:17:23;32.20;55.47
67722;SHT31;58309;45.292;11.820;2022-07-01T14:19:49;32.17;56.33
67722;SHT31;58309;45.292;11.820;2022-07-01T14:22:14;31.41;53.17
67722;SHT31;58309;45.292;11.820;2022-07-01T14:24:40;30.80;54.49
67722;SHT31;58309;45.292;11.820;2022-07-01T14:27:06;29.80;54.48
67722;SHT31;58309;45.292;11.820;2022-07-01T14:29:32;28.47;56.93
67722;SHT31;58309;45.292;11.820;2022-07-01T14:31:58;27.70;57.95
67722;SHT31;58309;45.292;11.820;2022-07-01T14:34:25;27.33;58.94
67722;SHT31;58309;45.292;11.820;2022-07-01T14:43:36;27.97;53.62
67722;SHT31;58309;45.292;11.820;2022-07-01T14:46:04;27.39;58.52
67722;SHT31;58309;45.292;11.820;2022-07-01T14:48:34;26.82;66.68
67722;SHT31;58309;45.292;11.820;2022-07-01T14:51:01;26.47;70.06
67722;SHT31;58309;45.292;11.820;2022-07-01T14:53:27;26.03;70.56
67722;SHT31;58309;45.292;11.820;2022-07-01T14:55:52;26.77;68.36
67722;SHT31;58309;45.292;11.820;2022-07-01T14:58:18;26.92;67.20
67722;SHT31;58309;45.292;11.820;2022-07-01T15:00:45;27.35;66.39
67722;SHT31;58309;45.292;11.820;2022-07-01T15:03:11;27.32;64.91
67722;SHT31;58309;45.292;11.820;2022-07-01T15:05:37;28.35;62.29
67722;SHT31;58309;45.292;11.820;2022-07-01T15:08:03;28.96;58.89
67722;SHT31;58309;45.292;11.820;2022-07-01T15:10:28;29.26;57.15
67722;SHT31;58309;45.292;11.820;2022-07-01T15:12:54;30.05;55.25
67722;SHT31;58309;45.292;11.820;2022-07-01T15:15:23;30.05;54.51
67722;SHT31;58309;45.292;11.820;2022-07-01T15:17:48;29.84;54.37
67722;SHT31;58309;45.292;11.820;2022-07-01T15:20:15;29.27;54.32
67722;SHT31;58309;45.292;11.820;2022-07-01T15:22:41;28.49;55.46
67722;SHT31;58309;45.292;11.820;2022-07-01T15:25:08;28.25;57.59
67722;SHT31;58309;45.292;11.820;2022-07-01T15:27:34;27.91;58.75
67722;SHT31;58309;45.292;11.820;2022-07-01T15:30:00;27.54;60.55
67722;SHT31;58309;45.292;11.820;2022-07-01T15:32:28;27.49;61.96
67722;SHT31;58309;45.292;11.820;2022-07-01T15:34:54;27.39;63.92
67722;SHT31;58309;45.292;11.820;2022-07-01T15:37:19;27.12;65.59